Time;durP1;ratioP1;P1;durP2;ratioP2;P2;SDS_P1;SDS_P2;PMS_P1;PMS_P2;Temp;Humidity;BMP_temperature;BMP_pressure;BME280_temperature;BME280_humidity;BME280_pressure;Samples;Min_cycle;Max_cycle;Signal;HPM_P1;HPM_P2
2022/06/17 00:01:55;;;;;;;5.03;2.83;;;20.10;99.90;;;;;;5077035;28;20420;-87
2022/06/17 00:04:40;;;;;;;4.13;3.10;;;20.00;99.90;;;;;;5027252;28;20538;-86
2022/06/17 00:07:25;;;;;;;2.87;2.67;;;19.90;99.90;;;;;;5064537;28;20443;-86
2022/06/17 00:10:20;;;;;;;2.70;2.50;;;19.90;99.90;;;;;;5085908;28;20384;-86
2022/06/17 00:13:05;;;;;;;3.40;2.97;;;19.90;99.90;;;;;;5076632;28;20460;-86
2022/06/17 00:15:51;;;;;;;4.23;2.87;;;19.80;99.90;;;;;;5066417;28;20406;-86
2022/06/17 00:18:36;;;;;;;5.30;2.63;;;19.80;99.90;;;;;;5066520;28;20425;-86
2022/06/17 00:21:26;;;;;;;4.03;2.67;;;19.80;99.90;;;;;;5065898;28;20433;-86
2022/06/17 00:24:30;;;;;;;3.40;2.70;;;19.80;99.90;;;;;;5066308;28;20817;-86
2022/06/17 00:27:15;;;;;;;3.47;2.40;;;19.80;99.90;;;;;;5075607;28;20444;-86
2022/06/17 00:29:59;;;;;;;4.13;3.63;;;19.80;99.90;;;;;;5066013;28;20394;-86
2022/06/17 00:32:44;;;;;;;2.57;2.37;;;19.80;99.90;;;;;;5045857;28;20445;-86
2022/06/17 00:35:35;;;;;;;2.50;2.30;;;19.70;99.90;;;;;;5045440;28;20449;-86
2022/06/17 00:38:23;;;;;;;1.80;1.70;;;19.80;99.90;;;;;;5082186;28;20416;-86
2022/06/17 00:41:17;;;;;;;5.83;2.93;;;19.80;99.90;;;;;;5076951;28;20430;-86
2022/06/17 00:44:26;;;;;;;2.77;2.57;;;19.80;99.90;;;;;;5081544;28;20412;-86
2022/06/17 00:47:26;;;;;;;2.20;2.00;;;19.80;99.90;;;;;;5085517;28;20392;-86
2022/06/17 00:50:21;;;;;;;2.77;2.20;;;19.80;99.90;;;;;;5085445;28;20799;-86
2022/06/17 00:53:22;;;;;;;2.17;2.07;;;19.70;99.90;;;;;;5084392;28;20384;-86
2022/06/17 00:56:19;;;;;;;2.70;2.50;;;19.70;99.90;;;;;;5091349;28;20512;-86
2022/06/17 00:59:07;;;;;;;2.47;2.20;;;19.60;99.90;;;;;;5093768;28;20787;-86
2022/06/17 01:01:58;;;;;;;2.40;2.20;;;19.50;99.90;;;;;;5090559;28;20380;-86
2022/06/17 01:04:48;;;;;;;3.90;2.67;;;19.50;99.90;;;;;;5075216;28;20478;-86
2022/06/17 01:07:40;;;;;;;3.50;2.97;;;19.40;99.90;;;;;;5093677;28;20400;-86
2022/06/17 01:10:25;;;;;;;2.53;2.30;;;19.30;99.90;;;;;;5102106;28;20400;-86
2022/06/17 01:13:11;;;;;;;7.53;2.50;;;19.30;99.90;;;;;;5085336;28;20514;-86
2022/06/17 01:15:55;;;;;;;4.90;2.50;;;19.20;99.90;;;;;;5086085;28;20450;-86
2022/06/17 01:18:43;;;;;;;2.30;2.10;;;19.20;99.90;;;;;;5085648;28;20385;-86
2022/06/17 01:21:38;;;;;;;1.90;1.80;;;19.20;99.90;;;;;;5084941;28;20397;-86
2022/06/17 01:24:24;;;;;;;2.57;2.30;;;19.20;99.90;;;;;;5087750;28;20444;-86
2022/06/17 01:27:09;;;;;;;2.20;2.10;;;19.20;99.90;;;;;;5081049;28;20459;-86
2022/06/17 01:29:57;;;;;;;2.60;2.00;;;19.20;99.90;;;;;;5084957;28;20400;-86
2022/06/17 01:32:51;;;;;;;2.63;2.30;;;19.20;99.90;;;;;;5100004;28;20457;-86
2022/06/17 01:35:43;;;;;;;2.40;2.27;;;19.20;99.90;;;;;;5084134;28;20385;-86
2022/06/17 01:38:30;;;;;;;4.17;2.33;;;19.10;99.90;;;;;;5104701;28;20431;-86
2022/06/17 01:41:16;;;;;;;2.93;2.60;;;19.10;99.90;;;;;;5089696;28;20474;-86
2022/06/17 01:44:14;;;;;;;2.40;2.20;;;19.10;99.90;;;;;;5105368;28;20411;-86
2022/06/17 01:47:00;;;;;;;6.10;2.17;;;19.10;99.90;;;;;;5089669;28;20756;-86
2022/06/17 01:49:50;;;;;;;3.80;2.00;;;18.90;99.90;;;;;;5105287;28;20376;-86
2022/06/17 01:52:49;;;;;;;3.40;2.50;;;18.80;99.90;;;;;;5089243;28;20495;-86
2022/06/17 01:55:41;;;;;;;4.70;2.50;;;18.80;99.90;;;;;;5104782;28;20657;-86
2022/06/17 01:58:34;;;;;;;2.83;2.63;;;18.70;99.90;;;;;;5086732;28;20393;-86
2022/06/17 02:01:22;;;;;;;2.23;2.00;;;18.70;99.90;;;;;;5094189;28;20451;-86
2022/06/17 02:04:11;;;;;;;2.43;2.23;;;18.60;99.90;;;;;;5071797;28;20388;-86
2022/06/17 02:07:11;;;;;;;3.10;2.80;;;18.50;99.90;;;;;;5084258;28;20463;-86
2022/06/17 02:09:56;;;;;;;8.80;2.40;;;18.40;99.90;;;;;;5084297;28;20385;-86
2022/06/17 02:12:41;;;;;;;2.53;2.33;;;18.30;99.90;;;;;;5064630;28;20732;-86
2022/06/17 02:15:26;;;;;;;7.53;2.67;;;18.30;99.90;;;;;;5034807;28;20894;-86
2022/06/17 02:18:16;;;;;;;2.40;2.20;;;18.30;99.90;;;;;;5064446;28;20394;-86
2022/06/17 02:21:11;;;;;;;4.23;2.33;;;18.30;99.90;;;;;;5064646;28;20378;-87
2022/06/17 02:23:56;;;;;;;4.60;2.10;;;18.30;99.90;;;;;;5049941;28;20393;-86
2022/06/17 02:26:43;;;;;;;2.40;2.20;;;18.20;99.90;;;;;;5044582;28;20389;-86
2022/06/17 02:29:32;;;;;;;2.37;2.20;;;18.20;99.90;;;;;;5093197;28;20420;-86
2022/06/17 02:32:18;;;;;;;3.83;2.67;;;18.10;99.90;;;;;;5068741;28;20381;-86
2022/06/17 02:35:42;;;;;;;2.23;2.13;;;18.10;99.90;;;;;;5083928;28;20508;-86
2022/06/17 02:38:30;;;;;;;2.90;2.70;;;18.00;99.90;;;;;;5103787;28;20419;-87
2022/06/17 02:41:19;;;;;;;2.43;2.23;;;18.00;99.90;;;;;;5104274;28;20798;-86
2022/06/17 02:44:20;;;;;;;2.40;2.20;;;18.00;99.90;;;;;;5105117;28;20384;-86
2022/06/17 02:47:06;;;;;;;3.00;2.47;;;18.10;99.90;;;;;;5105186;28;20419;-87
2022/06/17 02:49:53;;;;;;;3.23;2.47;;;18.00;99.90;;;;;;5103605;28;20446;-86
2022/06/17 02:52:39;;;;;;;5.67;2.80;;;18.00;99.90;;;;;;5104422;28;20404;-86
2022/06/17 02:55:38;;;;;;;3.47;2.87;;;18.00;99.90;;;;;;5104153;28;20419;-86
2022/06/17 02:58:46;;;;;;;3.07;2.27;;;18.00;99.90;;;;;;5087996;28;20424;-84
2022/06/17 03:01:34;;;;;;;2.33;2.20;;;18.10;99.90;;;;;;5086060;28;20737;-86
2022/06/17 03:04:24;;;;;;;4.87;2.87;;;18.00;99.90;;;;;;5086023;28;20443;-86
2022/06/17 03:07:14;;;;;;;3.20;2.90;;;18.00;99.90;;;;;;5095574;28;20428;-86
2022/06/17 03:09:59;;;;;;;3.10;2.27;;;18.00;99.90;;;;;;5084437;28;20424;-86
2022/06/17 03:12:47;;;;;;;2.60;2.40;;;18.00;99.90;;;;;;5089198;28;20454;-86
2022/06/17 03:15:32;;;;;;;2.90;2.50;;;17.90;99.90;;;;;;5088983;28;20436;-86
2022/06/17 03:18:17;;;;;;;7.83;2.90;;;17.80;99.90;;;;;;5104377;28;20391;-86
2022/06/17 03:21:03;;;;;;;2.20;2.10;;;17.80;99.90;;;;;;5105149;28;20419;-86
2022/06/17 03:24:11;;;;;;;5.40;2.10;;;17.60;99.90;;;;;;5104654;28;20415;-86
2022/06/17 03:27:01;;;;;;;2.60;2.33;;;17.50;99.90;;;;;;5106028;28;20411;-86
2022/06/17 03:29:48;;;;;;;2.93;2.63;;;17.50;99.90;;;;;;5066070;28;20397;-84
2022/06/17 03:32:38;;;;;;;3.13;2.80;;;17.50;99.90;;;;;;5085228;28;20407;-86
2022/06/17 03:35:31;;;;;;;3.67;2.37;;;17.50;99.90;;;;;;5107553;28;20377;-85
2022/06/17 03:38:28;;;;;;;2.20;2.00;;;17.60;99.90;;;;;;5115280;28;20396;-86
2022/06/17 03:41:21;;;;;;;2.50;2.30;;;17.50;99.90;;;;;;5098247;28;20402;-83
2022/06/17 03:44:12;;;;;;;3.10;2.80;;;17.50;99.90;;;;;;5099317;28;20462;-84
2022/06/17 03:47:04;;;;;;;4.33;2.60;;;17.50;99.90;;;;;;5087977;28;20466;-86
2022/06/17 03:49:55;;;;;;;3.03;2.33;;;17.50;99.90;;;;;;5079557;28;20432;-86
2022/06/17 03:52:48;;;;;;;3.40;2.10;;;17.60;99.90;;;;;;5083667;28;20443;-86
2022/06/17 03:55:36;;;;;;;4.23;2.60;;;17.60;99.90;;;;;;5094909;28;20581;-86
2022/06/17 03:58:21;;;;;;;3.40;1.97;;;17.60;99.90;;;;;;5092412;28;20900;-86
2022/06/17 04:01:15;;;;;;;3.23;1.90;;;17.60;99.90;;;;;;5096122;28;20405;-86
2022/06/17 04:04:07;;;;;;;4.57;2.37;;;17.60;99.90;;;;;;5083697;28;20463;-86
2022/06/17 04:06:55;;;;;;;2.40;2.00;;;17.70;99.90;;;;;;5089034;28;20958;-86
2022/06/17 04:09:44;;;;;;;2.53;2.33;;;17.70;99.90;;;;;;5076243;28;20405;-86
2022/06/17 04:12:29;;;;;;;2.70;2.50;;;17.80;99.90;;;;;;5104912;28;20465;-85
2022/06/17 04:15:39;;;;;;;2.83;2.57;;;17.50;99.90;;;;;;5068086;28;20437;-86
2022/06/17 04:18:24;;;;;;;2.10;2.00;;;17.70;99.90;;;;;;5105471;28;20388;-86
2022/06/17 04:21:13;;;;;;;2.23;2.07;;;17.70;99.90;;;;;;5088295;28;20446;-86
2022/06/17 04:23:58;;;;;;;2.60;2.40;;;17.80;99.90;;;;;;5074111;28;20394;-86
2022/06/17 04:26:45;;;;;;;2.57;2.37;;;17.80;99.90;;;;;;5074464;28;20449;-86
2022/06/17 04:29:36;;;;;;;7.53;3.30;;;18.00;99.90;;;;;;5102907;28;20385;-85
2022/06/17 04:32:29;;;;;;;3.60;3.30;;;18.10;99.90;;;;;;5096846;28;20532;-85
2022/06/17 04:35:14;;;;;;;3.90;2.80;;;18.20;99.90;;;;;;5087886;28;20391;-85
2022/06/17 04:37:59;;;;;;;2.60;2.40;;;18.30;99.90;;;;;;5087517;28;20798;-86
2022/06/17 04:40:48;;;;;;;2.57;2.37;;;18.30;99.90;;;;;;5062326;28;20377;-85
2022/06/17 04:43:39;;;;;;;2.53;2.37;;;18.20;99.90;;;;;;5085448;28;20945;-86
2022/06/17 04:46:41;;;;;;;2.93;2.63;;;18.30;99.90;;;;;;5109660;28;20443;-83
2022/06/17 04:49:30;;;;;;;2.50;2.30;;;18.30;99.90;;;;;;5114755;28;20436;-85
2022/06/17 04:52:30;;;;;;;3.00;2.80;;;18.40;99.90;;;;;;5115216;28;20461;-85
2022/06/17 04:55:19;;;;;;;3.63;2.40;;;18.30;99.90;;;;;;5095004;28;20465;-83
2022/06/17 04:58:04;;;;;;;3.07;2.50;;;18.40;99.90;;;;;;5116747;28;20530;-84
2022/06/17 05:00:54;;;;;;;2.77;2.57;;;18.50;99.90;;;;;;5091799;28;20392;-83
2022/06/17 05:03:38;;;;;;;3.27;2.27;;;18.30;99.90;;;;;;5120700;28;20388;-84
2022/06/17 05:06:23;;;;;;;3.20;3.00;;;18.30;99.90;;;;;;5101276;28;20444;-85
2022/06/17 05:09:31;;;;;;;2.53;2.33;;;18.30;99.90;;;;;;5108803;28;20416;-82
2022/06/17 05:12:23;;;;;;;2.13;1.93;;;18.40;99.90;;;;;;5119946;28;20404;-82
2022/06/17 05:15:14;;;;;;;3.30;3.00;;;18.50;99.90;;;;;;5092390;28;20461;-83
2022/06/17 05:17:59;;;;;;;3.40;2.10;;;18.40;99.90;;;;;;5105469;28;20396;-83
2022/06/17 05:20:45;;;;;;;6.00;2.00;;;18.50;99.90;;;;;;5120047;28;20403;-85
2022/06/17 05:23:31;;;;;;;3.80;2.60;;;18.60;99.90;;;;;;5119899;28;20427;-85
2022/06/17 05:26:17;;;;;;;2.90;2.60;;;18.70;99.90;;;;;;5110261;28;20505;-84
2022/06/17 05:29:02;;;;;;;2.87;2.10;;;18.70;99.90;;;;;;5072980;28;20444;-85
2022/06/17 05:31:49;;;;;;;2.70;2.30;;;18.80;99.90;;;;;;5070475;28;20760;-85
2022/06/17 05:34:34;;;;;;;2.70;2.50;;;18.80;99.90;;;;;;5083273;28;20400;-85
2022/06/17 05:37:18;;;;;;;10.17;2.30;;;18.80;99.90;;;;;;5071109;28;20742;-85
2022/06/17 05:40:05;;;;;;;3.30;2.20;;;19.00;99.90;;;;;;5083747;28;20400;-85
2022/06/17 05:42:50;;;;;;;2.53;2.33;;;18.90;99.90;;;;;;5089511;28;20776;-85
2022/06/17 05:45:35;;;;;;;1.87;1.67;;;19.00;99.90;;;;;;5103675;28;20473;-85
2022/06/17 05:48:20;;;;;;;3.20;3.00;;;19.00;99.90;;;;;;5104035;28;20796;-85
2022/06/17 05:51:04;;;;;;;4.40;2.40;;;19.10;99.90;;;;;;5103292;28;20412;-85
2022/06/17 05:53:49;;;;;;;4.80;2.37;;;19.10;99.90;;;;;;5088373;28;20547;-85
2022/06/17 05:56:34;;;;;;;2.60;2.40;;;19.20;99.90;;;;;;5082662;28;20460;-85
2022/06/17 05:59:19;;;;;;;2.50;2.30;;;19.20;99.90;;;;;;5078725;28;20945;-86
2022/06/17 06:02:04;;;;;;;5.50;1.90;;;19.20;99.90;;;;;;5079741;28;20460;-86
2022/06/17 06:04:49;;;;;;;3.23;2.10;;;19.30;99.90;;;;;;5071644;28;20537;-85
2022/06/17 06:07:34;;;;;;;2.63;2.43;;;19.40;99.90;;;;;;5073386;28;20432;-85
2022/06/17 06:10:20;;;;;;;2.80;2.00;;;19.40;99.90;;;;;;5073384;28;20523;-85
2022/06/17 06:13:05;;;;;;;2.37;2.17;;;19.40;99.90;;;;;;5075126;28;20386;-85
2022/06/17 06:15:55;;;;;;;7.50;3.20;;;19.50;99.90;;;;;;5070310;28;20487;-85
2022/06/17 06:18:40;;;;;;;3.53;2.53;;;19.50;99.90;;;;;;5065937;28;20476;-84
2022/06/17 06:21:25;;;;;;;2.50;2.30;;;19.60;99.90;;;;;;5052856;28;20478;-84
2022/06/17 06:24:09;;;;;;;2.40;2.27;;;19.60;99.90;;;;;;5071158;28;20392;-84
2022/06/17 06:26:55;;;;;;;4.30;2.93;;;19.70;99.90;;;;;;5077025;28;20564;-85
2022/06/17 06:29:39;;;;;;;2.17;2.03;;;19.70;99.90;;;;;;5073900;28;20909;-85
2022/06/17 06:32:24;;;;;;;3.07;2.60;;;19.70;99.90;;;;;;5070350;28;20546;-85
2022/06/17 06:35:15;;;;;;;4.47;2.83;;;19.80;99.90;;;;;;5055694;28;20505;-85
2022/06/17 06:38:00;;;;;;;3.10;2.30;;;19.90;99.90;;;;;;5072945;28;20393;-85
2022/06/17 06:40:45;;;;;;;2.43;2.27;;;20.00;99.90;;;;;;5055429;28;20418;-85
2022/06/17 06:43:30;;;;;;;4.10;3.03;;;20.00;99.90;;;;;;5061817;28;20404;-85
2022/06/17 06:46:16;;;;;;;2.30;2.10;;;19.90;99.90;;;;;;5075555;28;20488;-85
2022/06/17 06:49:01;;;;;;;4.80;2.00;;;20.00;99.90;;;;;;5075569;28;20404;-86
2022/06/17 06:51:45;;;;;;;4.63;2.50;;;20.10;99.90;;;;;;5070850;28;20964;-85
2022/06/17 06:54:30;;;;;;;3.30;2.63;;;20.10;99.90;;;;;;5073763;28;20479;-85
2022/06/17 06:57:16;;;;;;;3.57;2.70;;;20.20;99.90;;;;;;5069935;28;20468;-84
2022/06/17 07:00:13;;;;;;;3.00;2.67;;;20.10;99.90;;;;;;5078726;28;20736;-86
2022/06/17 07:02:57;;;;;;;3.57;2.70;;;20.00;99.90;;;;;;5060552;28;20487;-85
2022/06/17 07:05:45;;;;;;;5.27;3.03;;;19.90;99.90;;;;;;5076912;28;20441;-86
2022/06/17 07:08:34;;;;;;;2.87;2.67;;;20.10;99.90;;;;;;5078776;28;21656;-85
2022/06/17 07:11:18;;;;;;;2.47;2.30;;;20.30;99.90;;;;;;5074919;28;20393;-86
2022/06/17 07:14:03;;;;;;;2.30;2.10;;;20.40;99.90;;;;;;5075582;28;20424;-85
2022/06/17 07:16:48;;;;;;;2.30;2.10;;;20.50;99.90;;;;;;5056862;28;20442;-85
2022/06/17 07:19:33;;;;;;;3.00;2.30;;;20.60;99.90;;;;;;5073501;28;20471;-85
2022/06/17 07:22:18;;;;;;;5.80;3.10;;;20.40;99.90;;;;;;5074913;28;20483;-85
2022/06/17 07:25:02;;;;;;;3.83;2.00;;;20.30;99.90;;;;;;5074303;28;20436;-85
2022/06/17 07:27:49;;;;;;;3.30;2.50;;;20.50;99.90;;;;;;5071666;28;20754;-86
2022/06/17 07:30:34;;;;;;;7.30;2.73;;;20.70;99.90;;;;;;5085509;28;20487;-85
2022/06/17 07:33:21;;;;;;;5.43;2.83;;;20.50;99.90;;;;;;5079127;28;20439;-86
2022/06/17 07:36:07;;;;;;;2.63;2.40;;;20.50;99.90;;;;;;5081672;28;20528;-84
2022/06/17 07:41:55;;;;;;;4.97;2.47;;;20.90;99.90;;;;;;5083115;28;20400;-85
2022/06/17 07:44:39;;;;;;;2.83;2.63;;;21.00;99.90;;;;;;5072934;28;20511;-86
2022/06/17 07:47:24;;;;;;;2.23;2.03;;;21.10;99.90;;;;;;5035090;28;20417;-85
2022/06/17 07:50:15;;;;;;;2.80;2.60;;;21.00;99.90;;;;;;5070874;28;20443;-85
2022/06/17 07:52:59;;;;;;;2.47;2.17;;;21.20;99.90;;;;;;5073161;28;20444;-86
2022/06/17 07:55:45;;;;;;;4.50;2.50;;;21.00;99.90;;;;;;5079446;28;20448;-85
2022/06/17 07:58:30;;;;;;;6.00;2.90;;;21.20;99.90;;;;;;5073890;28;20514;-86
2022/06/17 08:01:15;;;;;;;3.80;2.70;;;21.30;99.90;;;;;;5074931;28;20452;-85
2022/06/17 08:04:00;;;;;;;4.80;2.53;;;21.60;99.90;;;;;;5075196;28;20428;-86
2022/06/17 08:06:49;;;;;;;2.77;2.20;;;21.70;99.90;;;;;;5067687;28;20499;-86
2022/06/17 08:09:34;;;;;;;5.67;2.93;;;21.80;99.90;;;;;;5062663;28;20420;-86
2022/06/17 08:12:19;;;;;;;2.53;2.33;;;21.90;99.90;;;;;;5080978;28;20412;-86
2022/06/17 08:15:05;;;;;;;5.93;3.10;;;21.90;99.90;;;;;;5073481;28;20448;-86
2022/06/17 08:17:52;;;;;;;7.50;2.37;;;22.10;99.90;;;;;;5076127;28;20416;-85
2022/06/17 08:20:37;;;;;;;3.20;2.53;;;22.00;99.90;;;;;;5063233;28;20401;-85
2022/06/17 08:23:22;;;;;;;3.57;3.27;;;22.10;99.90;;;;;;5072974;28;20430;-86
2022/06/17 08:26:07;;;;;;;5.77;2.00;;;21.90;99.90;;;;;;5056680;28;20964;-87
2022/06/17 08:28:52;;;;;;;2.63;1.93;;;21.80;99.90;;;;;;5051693;28;20793;-85
2022/06/17 08:31:37;;;;;;;3.40;2.43;;;21.70;99.90;;;;;;5075877;28;20444;-85
2022/06/17 08:34:21;;;;;;;6.50;2.43;;;21.90;99.90;;;;;;5061620;28;20468;-85
2022/06/17 08:37:06;;;;;;;2.30;2.10;;;22.10;99.90;;;;;;5075901;28;20397;-85
2022/06/17 08:39:55;;;;;;;2.17;1.97;;;22.30;99.90;;;;;;5055440;28;20453;-85
2022/06/17 08:42:58;;;;;;;2.10;1.90;;;22.50;99.90;;;;;;5058939;28;20401;-85
2022/06/17 08:46:01;;;;;;;2.33;2.13;;;22.10;99.90;;;;;;5050621;28;20851;-85
2022/06/17 08:49:14;;;;;;;3.63;2.67;;;22.10;99.90;;;;;;5042087;28;20416;-85
2022/06/17 08:52:29;;;;;;;2.37;2.17;;;22.20;99.90;;;;;;5047460;28;20454;-85
2022/06/17 08:55:34;;;;;;;2.20;2.00;;;21.90;99.90;;;;;;5056954;28;20583;-86
2022/06/17 08:58:54;;;;;;;2.17;2.07;;;22.10;99.90;;;;;;5049877;28;20492;-87
2022/06/17 09:01:57;;;;;;;2.40;1.87;;;22.20;99.90;;;;;;5047864;28;20447;-86
2022/06/17 09:05:00;;;;;;;2.43;2.23;;;22.50;99.90;;;;;;5043804;28;20486;-84
2022/06/17 09:08:14;;;;;;;4.90;2.10;;;22.60;99.90;;;;;;5028379;28;20453;-82
2022/06/17 09:11:22;;;;;;;1.93;1.70;;;22.60;98.60;;;;;;5047776;28;20419;-82
2022/06/17 09:14:28;;;;;;;4.60;2.17;;;22.20;98.10;;;;;;5038772;28;21572;-83
2022/06/17 09:17:37;;;;;;;2.60;2.40;;;22.20;96.20;;;;;;5038248;28;21021;-82
2022/06/17 09:20:30;;;;;;;7.13;2.23;;;22.60;96.60;;;;;;5031651;28;20406;-81
2022/06/17 09:23:23;;;;;;;2.57;2.37;;;22.50;95.60;;;;;;5068575;28;20414;-83
2022/06/17 09:26:34;;;;;;;4.67;2.10;;;22.80;95.60;;;;;;5063975;28;20976;-82
2022/06/17 09:29:43;;;;;;;1.70;1.60;;;23.00;97.30;;;;;;5069839;28;20494;-83
2022/06/17 09:32:37;;;;;;;2.50;1.93;;;22.90;94.60;;;;;;5076086;28;20433;-82
2022/06/17 09:35:33;;;;;;;6.13;2.13;;;22.60;94.20;;;;;;5076553;28;20401;-80
2022/06/17 09:38:30;;;;;;;3.17;1.83;;;22.40;91.50;;;;;;5065713;28;20417;-82
2022/06/17 09:41:38;;;;;;;1.90;1.80;;;22.90;94.80;;;;;;5008253;28;20491;-81
2022/06/17 09:44:37;;;;;;;1.97;1.70;;;23.00;92.70;;;;;;5018006;28;20417;-81
2022/06/17 09:47:30;;;;;;;2.30;2.10;;;22.80;91.30;;;;;;4974485;28;20436;-83
2022/06/17 09:50:22;;;;;;;4.50;2.20;;;23.20;91.30;;;;;;4984500;28;20427;-82
2022/06/17 09:53:25;;;;;;;1.50;1.40;;;23.60;91.80;;;;;;4986640;28;20436;-83
2022/06/17 09:56:22;;;;;;;3.10;1.90;;;23.80;88.40;;;;;;4992544;28;20520;-83
2022/06/17 09:59:18;;;;;;;8.70;2.50;;;23.90;92.40;;;;;;4974942;28;20434;-83
2022/06/17 10:02:21;;;;;;;1.90;1.80;;;23.90;90.40;;;;;;4943869;29;20462;-83
2022/06/17 10:05:35;;;;;;;2.83;2.63;;;23.40;87.70;;;;;;4946618;29;20544;-83
2022/06/17 10:08:50;;;;;;;4.50;1.80;;;23.20;87.60;;;;;;4930506;29;20451;-83
2022/06/17 10:11:54;;;;;;;2.40;2.07;;;23.90;86.60;;;;;;4930586;29;20455;-83
2022/06/17 10:15:08;;;;;;;5.60;2.40;;;23.60;82.30;;;;;;4944517;29;20454;-83
2022/06/17 10:18:36;;;;;;;4.20;3.80;;;23.80;90.00;;;;;;4945471;28;20415;-81
2022/06/17 10:21:40;;;;;;;3.63;1.90;;;24.00;87.00;;;;;;5009760;28;20549;-83
2022/06/17 10:24:48;;;;;;;5.83;2.13;;;24.00;84.60;;;;;;4963610;28;20805;-82
2022/06/17 10:28:01;;;;;;;1.73;1.63;;;24.30;89.70;;;;;;5002064;28;20474;-82
2022/06/17 10:31:00;;;;;;;1.80;1.70;;;24.60;84.70;;;;;;5009142;28;20426;-80
2022/06/17 10:33:45;;;;;;;1.90;1.80;;;24.70;90.20;;;;;;5085006;28;20789;-79
2022/06/17 10:36:34;;;;;;;2.00;1.80;;;24.60;83.80;;;;;;5075924;28;20396;-80
2022/06/17 10:39:21;;;;;;;3.20;3.00;;;24.00;80.10;;;;;;5087570;28;20427;-83
2022/06/17 10:42:19;;;;;;;2.57;1.70;;;24.40;81.30;;;;;;5065111;28;20544;-84
2022/06/17 10:45:06;;;;;;;2.17;1.97;;;24.20;78.40;;;;;;5016937;28;20497;-83
2022/06/17 10:48:00;;;;;;;2.50;1.80;;;24.40;82.00;;;;;;5002106;28;20456;-83
2022/06/17 10:51:01;;;;;;;2.57;2.37;;;24.40;76.90;;;;;;5012162;28;20416;-82
2022/06/17 10:53:57;;;;;;;1.90;1.63;;;25.10;75.70;;;;;;4996431;28;20455;-83
2022/06/17 10:57:07;;;;;;;2.03;1.83;;;25.30;77.50;;;;;;5006475;28;20617;-81
2022/06/17 10:59:55;;;;;;;2.40;1.97;;;24.40;77.50;;;;;;5015243;28;20478;-83
2022/06/17 11:02:44;;;;;;;2.40;2.20;;;24.70;78.00;;;;;;5013165;28;20407;-83
2022/06/17 11:05:34;;;;;;;3.30;1.90;;;25.10;77.10;;;;;;5012659;28;20506;-83
2022/06/17 11:08:25;;;;;;;4.07;1.87;;;25.10;78.30;;;;;;5003419;28;20419;-82
2022/06/17 11:14:21;;;;;;;4.37;1.87;;;24.90;74.60;;;;;;5013924;28;20398;-84
2022/06/17 11:17:30;;;;;;;2.10;1.90;;;24.80;75.60;;;;;;5027296;28;20425;-83
2022/06/17 11:20:26;;;;;;;1.80;1.63;;;24.70;76.30;;;;;;5057918;28;20940;-84
2022/06/17 11:23:25;;;;;;;3.23;1.97;;;25.30;76.50;;;;;;5052965;28;20536;-83
2022/06/17 11:26:19;;;;;;;3.60;1.70;;;25.20;71.70;;;;;;5055027;28;20572;-82
2022/06/17 11:29:22;;;;;;;2.13;1.93;;;25.20;69.50;;;;;;5053713;28;20419;-81
2022/06/17 11:32:29;;;;;;;1.67;1.57;;;26.10;68.30;;;;;;5053933;28;20889;-82
2022/06/17 11:35:28;;;;;;;1.50;1.40;;;26.40;64.60;;;;;;5055924;28;20426;-84
2022/06/17 11:38:20;;;;;;;4.00;1.90;;;26.50;68.50;;;;;;5039650;28;20459;-82
2022/06/17 11:41:10;;;;;;;2.03;1.87;;;26.90;64.60;;;;;;5039548;28;20521;-84
2022/06/17 11:44:16;;;;;;;1.63;1.50;;;26.90;61.70;;;;;;4997726;28;20445;-82
2022/06/17 11:47:09;;;;;;;12.10;1.93;;;26.90;63.10;;;;;;5015798;28;20478;-83
2022/06/17 11:50:19;;;;;;;2.90;1.50;;;26.90;63.50;;;;;;4996581;28;20423;-84
2022/06/17 11:53:20;;;;;;;1.73;1.63;;;25.80;62.30;;;;;;4991456;28;20552;-80
2022/06/17 11:56:17;;;;;;;3.53;1.70;;;26.60;63.50;;;;;;4850630;28;3891851;-81
2022/06/17 11:59:18;;;;;;;2.33;2.13;;;27.30;60.50;;;;;;4967126;28;20252;-82
2022/06/17 12:02:10;;;;;;;3.33;3.10;;;26.20;62.80;;;;;;4993579;28;20458;-82
2022/06/17 12:05:11;;;;;;;2.47;2.10;;;27.00;63.40;;;;;;4967646;28;20453;-81
2022/06/17 12:08:02;;;;;;;1.70;1.60;;;27.60;64.00;;;;;;4911217;29;20436;-84
2022/06/17 12:10:50;;;;;;;1.90;1.80;;;27.80;59.40;;;;;;4929970;29;20423;-81
2022/06/17 12:13:40;;;;;;;1.70;1.40;;;27.80;60.70;;;;;;4940227;29;20455;-82
2022/06/17 12:16:41;;;;;;;1.50;1.40;;;26.70;59.40;;;;;;4920358;29;20528;-83
2022/06/17 12:19:32;;;;;;;3.30;3.00;;;26.70;58.10;;;;;;4920746;29;20403;-83
2022/06/17 12:22:37;;;;;;;1.90;1.80;;;26.40;58.60;;;;;;4943549;29;20545;-83
2022/06/17 12:25:48;;;;;;;2.03;1.30;;;26.50;58.60;;;;;;4933777;29;20426;-83
2022/06/17 12:28:54;;;;;;;1.80;1.70;;;27.10;59.50;;;;;;4934079;29;20488;-83
2022/06/17 12:31:48;;;;;;;3.13;2.20;;;27.50;59.40;;;;;;4945417;29;20505;-83
2022/06/17 12:34:50;;;;;;;4.37;1.90;;;27.10;57.10;;;;;;4973891;28;20535;-82
2022/06/17 12:37:55;;;;;;;1.97;1.80;;;27.00;56.80;;;;;;4979882;28;20420;-82
2022/06/17 12:41:21;;;;;;;2.03;1.93;;;27.20;57.20;;;;;;4931708;29;20426;-83
2022/06/17 12:44:21;;;;;;;2.47;2.20;;;27.40;58.50;;;;;;4919309;29;20422;-82
2022/06/17 12:47:16;;;;;;;7.83;4.63;;;27.30;58.10;;;;;;4901756;29;20459;-83
2022/06/17 12:53:36;;;;;;;1.80;1.70;;;27.80;59.60;;;;;;4877511;29;20435;-83
2022/06/17 12:56:48;;;;;;;4.20;2.00;;;29.20;59.40;;;;;;5076388;23;20345;-82
2022/06/17 13:00:05;;;;;;;2.85;1.90;;;29.80;63.80;;;;;;5031911;28;20172;-80
2022/06/17 13:03:25;;;;;;;2.35;1.98;;;30.70;59.20;;;;;;5040600;28;20183;-83
2022/06/17 13:06:34;;;;;;;2.88;1.85;;;31.20;58.30;;;;;;4991718;28;20225;-84
2022/06/17 13:09:53;;;;;;;1.65;1.55;;;31.50;53.30;;;;;;4984629;28;20196;-82
2022/06/17 13:13:09;;;;;;;1.73;1.63;;;31.50;51.00;;;;;;4972000;28;20277;-81
2022/06/17 13:16:00;;;;;;;1.60;1.50;;;31.60;49.10;;;;;;4953066;28;20626;-83
2022/06/17 13:19:13;;;;;;;3.03;1.70;;;31.00;52.40;;;;;;4954690;28;20197;-83
2022/06/17 13:22:33;;;;;;;2.50;1.55;;;31.50;49.40;;;;;;4961112;28;20212;-84
2022/06/17 13:25:39;;;;;;;2.13;1.85;;;30.70;51.10;;;;;;4992910;28;20351;-84
2022/06/17 13:28:47;;;;;;;2.08;1.80;;;31.50;53.50;;;;;;4958545;28;20185;-83
2022/06/17 13:32:04;;;;;;;3.20;1.70;;;31.30;51.30;;;;;;4973807;28;20196;-82
2022/06/17 13:38:36;;;;;;;2.13;1.92;;;32.10;50.50;;;;;;4966561;28;20203;-83
2022/06/17 13:41:31;;;;;;;1.83;1.52;;;31.80;49.00;;;;;;4995365;28;20180;-84
2022/06/17 13:44:42;;;;;;;2.00;1.80;;;32.10;48.60;;;;;;4991294;28;20182;-84
2022/06/17 13:47:41;;;;;;;2.60;1.85;;;30.40;47.80;;;;;;4989452;28;20479;-83
2022/06/17 13:50:51;;;;;;;1.85;1.75;;;29.60;50.50;;;;;;4971582;28;20176;-84
2022/06/17 13:53:56;;;;;;;1.90;1.80;;;29.90;52.30;;;;;;4961983;28;20181;-83
2022/06/17 13:57:12;;;;;;;2.10;1.65;;;29.80;53.50;;;;;;5001462;28;20223;-85
2022/06/17 14:00:28;;;;;;;2.17;1.73;;;30.50;50.00;;;;;;4999606;28;20277;-82
2022/06/17 14:03:22;;;;;;;3.42;2.30;;;29.90;49.70;;;;;;5010243;28;20636;-84
2022/06/17 14:06:11;;;;;;;1.73;1.63;;;30.60;51.80;;;;;;5042585;28;20246;-82
2022/06/17 14:08:59;;;;;;;2.05;1.73;;;31.50;50.80;;;;;;5011425;28;20171;-83
2022/06/17 14:11:47;;;;;;;1.70;1.60;;;32.10;48.60;;;;;;5021740;28;20202;-84
2022/06/17 14:14:37;;;;;;;1.90;1.80;;;32.20;47.80;;;;;;5016625;28;20237;-84
2022/06/17 14:17:32;;;;;;;1.67;1.58;;;32.20;48.00;;;;;;5036709;28;20214;-82
2022/06/17 14:20:30;;;;;;;2.10;2.00;;;30.70;48.40;;;;;;5030982;28;20203;-84
2022/06/17 14:23:41;;;;;;;2.40;1.98;;;31.20;47.90;;;;;;5035165;28;20711;-83
2022/06/17 14:26:51;;;;;;;1.92;1.75;;;30.70;48.70;;;;;;4987982;28;20326;-82
2022/06/17 14:29:39;;;;;;;1.92;1.73;;;31.00;48.60;;;;;;5003506;28;20219;-84
2022/06/17 14:33:01;;;;;;;1.70;1.60;;;30.50;47.80;;;;;;5007446;28;20626;-84
2022/06/17 14:35:52;;;;;;;1.80;1.70;;;31.30;49.10;;;;;;5011036;28;20279;-84
2022/06/17 14:38:58;;;;;;;1.90;1.50;;;32.00;48.50;;;;;;4952419;28;20218;-85
2022/06/17 14:42:06;;;;;;;1.90;1.70;;;31.90;45.70;;;;;;4954032;29;20229;-83
2022/06/17 14:45:30;;;;;;;5.85;1.65;;;31.50;46.10;;;;;;4932775;29;20185;-82
2022/06/17 14:48:24;;;;;;;1.60;1.50;;;31.70;45.90;;;;;;4948021;29;20206;-81
2022/06/17 14:51:40;;;;;;;3.22;1.52;;;31.80;45.70;;;;;;4944418;29;20323;-84
2022/06/17 14:54:30;;;;;;;1.67;1.58;;;32.00;45.40;;;;;;4958232;29;20251;-83
2022/06/17 14:57:19;;;;;;;2.05;1.55;;;31.70;46.20;;;;;;4953549;29;20305;-84
2022/06/17 15:00:24;;;;;;;1.80;1.70;;;31.60;45.30;;;;;;4966632;28;20278;-82
2022/06/17 15:03:33;;;;;;;2.95;1.75;;;31.80;45.00;;;;;;4950246;28;20185;-84
2022/06/17 15:06:34;;;;;;;1.70;1.60;;;32.20;49.80;;;;;;4995272;28;20217;-83
2022/06/17 15:09:39;;;;;;;1.42;1.30;;;32.20;48.50;;;;;;5045585;28;20189;-83
2022/06/17 15:12:34;;;;;;;3.13;1.60;;;32.20;48.10;;;;;;5029328;28;20170;-84
2022/06/17 15:15:31;;;;;;;2.38;1.40;;;31.70;47.20;;;;;;4995278;28;20541;-84
2022/06/17 15:18:22;;;;;;;1.77;1.67;;;31.50;47.60;;;;;;5004746;28;20228;-83